sensor_id;sensor_type;location;lat;lon;timestamp;temperature;humidity
44671;DHT22;48397;53.016;-2.260;2023-06-22T00:02:08;16.70;99.90
44671;DHT22;48397;53.016;-2.260;2023-06-22T00:09:32;16.60;99.90
44671;DHT22;48397;53.016;-2.260;2023-06-22T00:12:01;16.60;99.90
44671;DHT22;48397;53.016;-2.260;2023-06-22T00:14:29;16.60;99.90
44671;DHT22;48397;53.016;-2.260;2023-06-22T00:19:26;16.50;99.90
44671;DHT22;48397;53.016;-2.260;2023-06-22T00:24:21;16.40;99.90
44671;DHT22;48397;53.016;-2.260;2023-06-22T00:26:49;16.40;99.90
44671;DHT22;48397;53.016;-2.260;2023-06-22T00:29:17;16.50;99.90
44671;DHT22;48397;53.016;-2.260;2023-06-22T00:34:14;16.60;99.90
44671;DHT22;48397;53.016;-2.260;2023-06-22T00:36:43;16.70;99.90
44671;DHT22;48397;53.016;-2.260;2023-06-22T00:39:11;16.80;99.90
44671;DHT22;48397;53.016;-2.260;2023-06-22T00:41:39;16.80;99.90
44671;DHT22;48397;53.016;-2.260;2023-06-22T00:44:06;16.80;99.90
44671;DHT22;48397;53.016;-2.260;2023-06-22T00:46:36;16.90;99.90
44671;DHT22;48397;53.016;-2.260;2023-06-22T00:49:03;16.90;99.90
44671;DHT22;48397;53.016;-2.260;2023-06-22T00:51:33;16.90;99.90
44671;DHT22;48397;53.016;-2.260;2023-06-22T00:54:01;16.90;99.90
44671;DHT22;48397;53.016;-2.260;2023-06-22T00:56:29;16.90;99.90
44671;DHT22;48397;53.016;-2.260;2023-06-22T00:58:58;16.90;99.90
44671;DHT22;48397;53.016;-2.260;2023-06-22T01:01:27;16.80;99.90
44671;DHT22;48397;53.016;-2.260;2023-06-22T01:03:56;16.80;99.90
44671;DHT22;48397;53.016;-2.260;2023-06-22T01:06:33;16.80;99.90
44671;DHT22;48397;53.016;-2.260;2023-06-22T01:09:19;16.80;99.90
44671;DHT22;48397;53.016;-2.260;2023-06-22T01:12:04;16.80;99.90
44671;DHT22;48397;53.016;-2.260;2023-06-22T01:14:49;16.80;99.90
44671;DHT22;48397;53.016;-2.260;2023-06-22T01:17:19;16.80;99.90
44671;DHT22;48397;53.016;-2.260;2023-06-22T01:19:54;16.80;99.90
44671;DHT22;48397;53.016;-2.260;2023-06-22T01:22:33;16.90;99.90
44671;DHT22;48397;53.016;-2.260;2023-06-22T01:25:20;16.90;99.90
44671;DHT22;48397;53.016;-2.260;2023-06-22T01:28:05;16.90;99.90
44671;DHT22;48397;53.016;-2.260;2023-06-22T01:30:36;16.90;99.90
44671;DHT22;48397;53.016;-2.260;2023-06-22T01:33:08;16.90;99.90
44671;DHT22;48397;53.016;-2.260;2023-06-22T01:35:38;16.90;99.90
44671;DHT22;48397;53.016;-2.260;2023-06-22T01:38:07;16.70;99.90
44671;DHT22;48397;53.016;-2.260;2023-06-22T01:40:36;16.80;99.90
44671;DHT22;48397;53.016;-2.260;2023-06-22T01:43:05;16.80;99.90
44671;DHT22;48397;53.016;-2.260;2023-06-22T01:45:35;16.80;99.90
44671;DHT22;48397;53.016;-2.260;2023-06-22T01:48:03;16.80;99.90
44671;DHT22;48397;53.016;-2.260;2023-06-22T01:50:31;16.80;99.90
44671;DHT22;48397;53.016;-2.260;2023-06-22T01:52:59;16.80;99.90
44671;DHT22;48397;53.016;-2.260;2023-06-22T01:55:27;16.80;99.90
44671;DHT22;48397;53.016;-2.260;2023-06-22T01:57:55;16.80;99.90
44671;DHT22;48397;53.016;-2.260;2023-06-22T02:00:25;16.70;99.90
44671;DHT22;48397;53.016;-2.260;2023-06-22T02:03:10;16.80;99.90
44671;DHT22;48397;53.016;-2.260;2023-06-22T02:06:16;16.80;99.90
44671;DHT22;48397;53.016;-2.260;2023-06-22T02:08:41;16.90;99.90
44671;DHT22;48397;53.016;-2.260;2023-06-22T02:11:10;16.80;99.90
44671;DHT22;48397;53.016;-2.260;2023-06-22T02:13:39;16.80;99.90
44671;DHT22;48397;53.016;-2.260;2023-06-22T02:16:11;16.90;99.90
44671;DHT22;48397;53.016;-2.260;2023-06-22T02:18:46;16.90;99.90
44671;DHT22;48397;53.016;-2.260;2023-06-22T02:21:14;16.90;99.90
44671;DHT22;48397;53.016;-2.260;2023-06-22T02:23:42;16.90;99.90
44671;DHT22;48397;53.016;-2.260;2023-06-22T02:26:09;16.90;99.90
44671;DHT22;48397;53.016;-2.260;2023-06-22T02:28:37;16.90;99.90
44671;DHT22;48397;53.016;-2.260;2023-06-22T02:31:05;16.90;99.90
44671;DHT22;48397;53.016;-2.260;2023-06-22T02:33:33;16.90;99.90
44671;DHT22;48397;53.016;-2.260;2023-06-22T02:36:01;16.90;99.90
44671;DHT22;48397;53.016;-2.260;2023-06-22T02:38:32;16.90;99.90
44671;DHT22;48397;53.016;-2.260;2023-06-22T02:41:02;16.90;99.90
44671;DHT22;48397;53.016;-2.260;2023-06-22T02:43:30;16.90;99.90
44671;DHT22;48397;53.016;-2.260;2023-06-22T02:45:57;16.80;99.90
44671;DHT22;48397;53.016;-2.260;2023-06-22T02:50:53;16.80;99.90
44671;DHT22;48397;53.016;-2.260;2023-06-22T02:53:21;16.80;99.90
44671;DHT22;48397;53.016;-2.260;2023-06-22T02:55:49;16.70;99.90
44671;DHT22;48397;53.016;-2.260;2023-06-22T02:58:16;16.70;99.90
44671;DHT22;48397;53.016;-2.260;2023-06-22T03:00:45;16.70;99.90
44671;DHT22;48397;53.016;-2.260;2023-06-22T03:03:12;16.70;99.90
44671;DHT22;48397;53.016;-2.260;2023-06-22T03:08:09;16.70;99.90
44671;DHT22;48397;53.016;-2.260;2023-06-22T03:10:36;16.70;99.90
44671;DHT22;48397;53.016;-2.260;2023-06-22T03:13:04;16.70;99.90
44671;DHT22;48397;53.016;-2.260;2023-06-22T03:15:32;16.70;99.90
44671;DHT22;48397;53.016;-2.260;2023-06-22T03:18:03;16.70;99.90
44671;DHT22;48397;53.016;-2.260;2023-06-22T03:20:30;16.70;99.90
44671;DHT22;48397;53.016;-2.260;2023-06-22T03:23:01;16.60;99.90
44671;DHT22;48397;53.016;-2.260;2023-06-22T03:25:29;16.70;99.90
44671;DHT22;48397;53.016;-2.260;2023-06-22T03:27:57;16.60;99.90
44671;DHT22;48397;53.016;-2.260;2023-06-22T03:30:26;16.60;99.90
44671;DHT22;48397;53.016;-2.260;2023-06-22T03:35:23;16.70;99.90
44671;DHT22;48397;53.016;-2.260;2023-06-22T03:37:51;16.70;99.90
44671;DHT22;48397;53.016;-2.260;2023-06-22T03:40:18;16.70;99.90
44671;DHT22;48397;53.016;-2.260;2023-06-22T03:42:46;16.70;99.90
44671;DHT22;48397;53.016;-2.260;2023-06-22T03:45:14;16.70;99.90
44671;DHT22;48397;53.016;-2.260;2023-06-22T03:50:10;16.70;99.90
44671;DHT22;48397;53.016;-2.260;2023-06-22T03:55:06;16.50;99.90
44671;DHT22;48397;53.016;-2.260;2023-06-22T03:57:34;16.70;99.90
44671;DHT22;48397;53.016;-2.260;2023-06-22T04:00:02;16.70;99.90
44671;DHT22;48397;53.016;-2.260;2023-06-22T04:05:08;16.80;99.90
44671;DHT22;48397;53.016;-2.260;2023-06-22T04:07:36;16.80;99.90
44671;DHT22;48397;53.016;-2.260;2023-06-22T04:10:05;16.80;99.90
44671;DHT22;48397;53.016;-2.260;2023-06-22T04:12:34;16.90;99.90
44671;DHT22;48397;53.016;-2.260;2023-06-22T04:15:02;16.90;99.90
44671;DHT22;48397;53.016;-2.260;2023-06-22T04:17:30;16.90;99.90
44671;DHT22;48397;53.016;-2.260;2023-06-22T04:19:58;16.90;99.90
44671;DHT22;48397;53.016;-2.260;2023-06-22T04:22:26;16.80;99.90
44671;DHT22;48397;53.016;-2.260;2023-06-22T04:24:54;16.90;99.90
44671;DHT22;48397;53.016;-2.260;2023-06-22T04:27:21;16.90;99.90
44671;DHT22;48397;53.016;-2.260;2023-06-22T04:29:50;16.80;99.90
44671;DHT22;48397;53.016;-2.260;2023-06-22T04:32:18;16.80;99.90
44671;DHT22;48397;53.016;-2.260;2023-06-22T04:34:46;16.80;99.90
44671;DHT22;48397;53.016;-2.260;2023-06-22T04:37:14;16.80;99.90
44671;DHT22;48397;53.016;-2.260;2023-06-22T04:39:43;16.80;99.90
44671;DHT22;48397;53.016;-2.260;2023-06-22T04:42:12;16.80;99.90
44671;DHT22;48397;53.016;-2.260;2023-06-22T04:44:40;16.80;99.90
44671;DHT22;48397;53.016;-2.260;2023-06-22T04:47:09;16.70;99.90
44671;DHT22;48397;53.016;-2.260;2023-06-22T04:49:37;16.70;99.90
44671;DHT22;48397;53.016;-2.260;2023-06-22T04:52:05;16.70;99.90
44671;DHT22;48397;53.016;-2.260;2023-06-22T04:54:35;16.70;99.90
44671;DHT22;48397;53.016;-2.260;2023-06-22T04:57:04;16.70;99.90
44671;DHT22;48397;53.016;-2.260;2023-06-22T04:59:38;16.60;99.90
44671;DHT22;48397;53.016;-2.260;2023-06-22T05:02:09;16.70;99.90
44671;DHT22;48397;53.016;-2.260;2023-06-22T05:04:37;16.60;99.90
44671;DHT22;48397;53.016;-2.260;2023-06-22T05:09:37;16.60;99.90
44671;DHT22;48397;53.016;-2.260;2023-06-22T05:12:05;16.60;99.90
44671;DHT22;48397;53.016;-2.260;2023-06-22T05:14:37;16.60;99.90
44671;DHT22;48397;53.016;-2.260;2023-06-22T05:17:04;16.60;99.90
44671;DHT22;48397;53.016;-2.260;2023-06-22T05:19:42;16.60;99.90
44671;DHT22;48397;53.016;-2.260;2023-06-22T05:22:16;16.60;99.90
44671;DHT22;48397;53.016;-2.260;2023-06-22T05:24:43;16.70;99.90
44671;DHT22;48397;53.016;-2.260;2023-06-22T05:27:11;16.60;99.90
44671;DHT22;48397;53.016;-2.260;2023-06-22T05:29:39;16.60;99.90
44671;DHT22;48397;53.016;-2.260;2023-06-22T05:32:07;16.60;99.90
44671;DHT22;48397;53.016;-2.260;2023-06-22T05:34:35;16.60;99.90
44671;DHT22;48397;53.016;-2.260;2023-06-22T05:37:03;16.60;99.90
44671;DHT22;48397;53.016;-2.260;2023-06-22T05:39:30;16.60;99.90
44671;DHT22;48397;53.016;-2.260;2023-06-22T05:41:58;16.60;99.90
44671;DHT22;48397;53.016;-2.260;2023-06-22T05:44:26;16.80;99.90
44671;DHT22;48397;53.016;-2.260;2023-06-22T05:49:21;16.90;99.90
44671;DHT22;48397;53.016;-2.260;2023-06-22T05:51:49;17.00;99.90
44671;DHT22;48397;53.016;-2.260;2023-06-22T05:54:18;17.10;99.90
44671;DHT22;48397;53.016;-2.260;2023-06-22T05:56:46;17.20;99.90
44671;DHT22;48397;53.016;-2.260;2023-06-22T05:59:14;17.20;99.90
44671;DHT22;48397;53.016;-2.260;2023-06-22T06:01:41;17.30;99.90
44671;DHT22;48397;53.016;-2.260;2023-06-22T06:04:09;17.30;99.90
44671;DHT22;48397;53.016;-2.260;2023-06-22T06:09:05;17.40;99.90
44671;DHT22;48397;53.016;-2.260;2023-06-22T06:11:33;17.40;99.90
44671;DHT22;48397;53.016;-2.260;2023-06-22T06:14:00;17.50;99.90
44671;DHT22;48397;53.016;-2.260;2023-06-22T06:16:28;17.50;99.90
44671;DHT22;48397;53.016;-2.260;2023-06-22T06:18:56;17.60;99.90
44671;DHT22;48397;53.016;-2.260;2023-06-22T06:21:23;17.60;99.90
44671;DHT22;48397;53.016;-2.260;2023-06-22T06:26:26;17.70;99.90
44671;DHT22;48397;53.016;-2.260;2023-06-22T06:28:58;17.70;99.90
44671;DHT22;48397;53.016;-2.260;2023-06-22T06:31:27;17.70;99.90
44671;DHT22;48397;53.016;-2.260;2023-06-22T06:33:58;17.80;99.90
44671;DHT22;48397;53.016;-2.260;2023-06-22T06:36:26;17.90;99.90
44671;DHT22;48397;53.016;-2.260;2023-06-22T06:38:54;17.90;99.90
44671;DHT22;48397;53.016;-2.260;2023-06-22T06:41:21;18.00;99.90
44671;DHT22;48397;53.016;-2.260;2023-06-22T06:43:50;18.20;99.90
44671;DHT22;48397;53.016;-2.260;2023-06-22T06:51:15;18.40;99.90
44671;DHT22;48397;53.016;-2.260;2023-06-22T06:53:43;18.30;99.90
44671;DHT22;48397;53.016;-2.260;2023-06-22T06:56:11;18.40;99.90
44671;DHT22;48397;53.016;-2.260;2023-06-22T06:58:43;18.40;99.90
44671;DHT22;48397;53.016;-2.260;2023-06-22T07:03:41;18.40;99.90
44671;DHT22;48397;53.016;-2.260;2023-06-22T07:08:37;18.40;99.90
44671;DHT22;48397;53.016;-2.260;2023-06-22T07:11:04;18.50;99.90
44671;DHT22;48397;53.016;-2.260;2023-06-22T07:13:32;18.50;99.90
44671;DHT22;48397;53.016;-2.260;2023-06-22T07:16:02;18.50;99.90
44671;DHT22;48397;53.016;-2.260;2023-06-22T07:18:30;18.50;99.90
44671;DHT22;48397;53.016;-2.260;2023-06-22T07:20:58;18.50;99.90
44671;DHT22;48397;53.016;-2.260;2023-06-22T07:23:25;18.60;99.90
44671;DHT22;48397;53.016;-2.260;2023-06-22T07:25:53;18.60;99.90
44671;DHT22;48397;53.016;-2.260;2023-06-22T07:28:21;18.60;99.90
44671;DHT22;48397;53.016;-2.260;2023-06-22T07:33:19;18.70;99.90
44671;DHT22;48397;53.016;-2.260;2023-06-22T07:35:47;18.80;99.90
44671;DHT22;48397;53.016;-2.260;2023-06-22T07:40:45;19.00;99.90
44671;DHT22;48397;53.016;-2.260;2023-06-22T07:45:40;19.10;99.90
44671;DHT22;48397;53.016;-2.260;2023-06-22T07:48:15;19.30;99.90
44671;DHT22;48397;53.016;-2.260;2023-06-22T07:50:43;19.40;99.90
44671;DHT22;48397;53.016;-2.260;2023-06-22T07:53:11;19.40;99.90
44671;DHT22;48397;53.016;-2.260;2023-06-22T07:55:39;19.50;99.90
44671;DHT22;48397;53.016;-2.260;2023-06-22T08:00:35;19.30;99.90
44671;DHT22;48397;53.016;-2.260;2023-06-22T08:03:03;19.40;99.90
44671;DHT22;48397;53.016;-2.260;2023-06-22T08:05:33;19.40;99.90
44671;DHT22;48397;53.016;-2.260;2023-06-22T08:08:01;19.40;99.90
44671;DHT22;48397;53.016;-2.260;2023-06-22T08:10:28;19.30;99.90
44671;DHT22;48397;53.016;-2.260;2023-06-22T08:12:56;19.40;99.90
44671;DHT22;48397;53.016;-2.260;2023-06-22T08:17:51;19.40;99.90
44671;DHT22;48397;53.016;-2.260;2023-06-22T08:20:20;19.40;99.90
44671;DHT22;48397;53.016;-2.260;2023-06-22T08:25:16;19.70;99.90
44671;DHT22;48397;53.016;-2.260;2023-06-22T08:27:47;19.90;99.90
44671;DHT22;48397;53.016;-2.260;2023-06-22T08:30:18;20.20;99.90
44671;DHT22;48397;53.016;-2.260;2023-06-22T08:32:48;20.30;99.90
44671;DHT22;48397;53.016;-2.260;2023-06-22T08:35:16;20.30;99.90
44671;DHT22;48397;53.016;-2.260;2023-06-22T08:37:43;20.30;99.90
44671;DHT22;48397;53.016;-2.260;2023-06-22T08:40:19;20.30;99.90
44671;DHT22;48397;53.016;-2.260;2023-06-22T08:42:50;20.20;99.90
44671;DHT22;48397;53.016;-2.260;2023-06-22T08:45:18;20.20;99.90
44671;DHT22;48397;53.016;-2.260;2023-06-22T08:47:45;20.20;99.90
44671;DHT22;48397;53.016;-2.260;2023-06-22T08:50:13;20.00;99.90
44671;DHT22;48397;53.016;-2.260;2023-06-22T08:52:41;20.00;99.90
44671;DHT22;48397;53.016;-2.260;2023-06-22T08:55:09;20.00;99.90
44671;DHT22;48397;53.016;-2.260;2023-06-22T09:00:07;19.90;99.90
44671;DHT22;48397;53.016;-2.260;2023-06-22T09:02:47;19.90;99.90
44671;DHT22;48397;53.016;-2.260;2023-06-22T09:05:16;19.90;99.90
44671;DHT22;48397;53.016;-2.260;2023-06-22T09:10:11;19.90;99.90
44671;DHT22;48397;53.016;-2.260;2023-06-22T09:12:43;19.70;99.90
44671;DHT22;48397;53.016;-2.260;2023-06-22T09:15:11;19.70;99.90
44671;DHT22;48397;53.016;-2.260;2023-06-22T09:20:14;19.60;99.90
44671;DHT22;48397;53.016;-2.260;2023-06-22T09:22:43;19.70;99.90
44671;DHT22;48397;53.016;-2.260;2023-06-22T09:25:11;19.70;99.90
44671;DHT22;48397;53.016;-2.260;2023-06-22T09:27:40;19.80;99.90
44671;DHT22;48397;53.016;-2.260;2023-06-22T09:30:08;19.80;99.90
44671;DHT22;48397;53.016;-2.260;2023-06-22T09:32:35;19.90;99.90
44671;DHT22;48397;53.016;-2.260;2023-06-22T09:35:05;19.90;99.90
44671;DHT22;48397;53.016;-2.260;2023-06-22T09:37:34;19.90;99.90
44671;DHT22;48397;53.016;-2.260;2023-06-22T09:40:01;19.90;99.90
44671;DHT22;48397;53.016;-2.260;2023-06-22T09:42:34;20.00;99.90
44671;DHT22;48397;53.016;-2.260;2023-06-22T09:47:32;20.20;99.90
44671;DHT22;48397;53.016;-2.260;2023-06-22T09:49:59;20.20;99.90
44671;DHT22;48397;53.016;-2.260;2023-06-22T09:52:27;20.30;99.90
44671;DHT22;48397;53.016;-2.260;2023-06-22T09:55:14;20.20;99.90
44671;DHT22;48397;53.016;-2.260;2023-06-22T10:00:12;20.10;99.90
44671;DHT22;48397;53.016;-2.260;2023-06-22T10:02:44;20.10;99.90
44671;DHT22;48397;53.016;-2.260;2023-06-22T10:05:12;20.30;99.90
44671;DHT22;48397;53.016;-2.260;2023-06-22T10:10:12;20.80;99.90
44671;DHT22;48397;53.016;-2.260;2023-06-22T10:12:42;20.90;99.90
44671;DHT22;48397;53.016;-2.260;2023-06-22T10:15:11;21.10;99.90
44671;DHT22;48397;53.016;-2.260;2023-06-22T10:17:39;21.20;99.90
44671;DHT22;48397;53.016;-2.260;2023-06-22T10:20:07;21.10;99.90
44671;DHT22;48397;53.016;-2.260;2023-06-22T10:22:41;21.60;99.90
44671;DHT22;48397;53.016;-2.260;2023-06-22T10:25:10;21.80;99.90
44671;DHT22;48397;53.016;-2.260;2023-06-22T10:27:39;21.90;99.90
44671;DHT22;48397;53.016;-2.260;2023-06-22T10:30:11;22.20;99.90
44671;DHT22;48397;53.016;-2.260;2023-06-22T10:32:42;22.50;99.90
44671;DHT22;48397;53.016;-2.260;2023-06-22T10:35:11;22.60;99.90
44671;DHT22;48397;53.016;-2.260;2023-06-22T10:37:45;22.70;99.90
44671;DHT22;48397;53.016;-2.260;2023-06-22T10:40:14;22.90;99.90
44671;DHT22;48397;53.016;-2.260;2023-06-22T10:42:43;23.00;99.90
44671;DHT22;48397;53.016;-2.260;2023-06-22T10:45:11;23.00;99.90
44671;DHT22;48397;53.016;-2.260;2023-06-22T10:47:38;23.00;99.90
44671;DHT22;48397;53.016;-2.260;2023-06-22T10:50:07;19.80;99.90
44671;DHT22;48397;53.016;-2.260;2023-06-22T10:52:35;23.50;99.90
44671;DHT22;48397;53.016;-2.260;2023-06-22T10:55:03;23.50;99.90
44671;DHT22;48397;53.016;-2.260;2023-06-22T10:57:31;23.50;99.90
44671;DHT22;48397;53.016;-2.260;2023-06-22T10:59:59;23.40;99.90
44671;DHT22;48397;53.016;-2.260;2023-06-22T11:02:26;23.30;99.90
44671;DHT22;48397;53.016;-2.260;2023-06-22T11:04:55;23.20;99.90
44671;DHT22;48397;53.016;-2.260;2023-06-22T11:07:23;23.30;99.90
44671;DHT22;48397;53.016;-2.260;2023-06-22T11:09:51;23.40;99.90
44671;DHT22;48397;53.016;-2.260;2023-06-22T11:12:19;23.40;99.90
44671;DHT22;48397;53.016;-2.260;2023-06-22T11:14:46;24.00;99.90
44671;DHT22;48397;53.016;-2.260;2023-06-22T11:17:14;24.00;99.90
44671;DHT22;48397;53.016;-2.260;2023-06-22T11:22:10;23.90;99.90
44671;DHT22;48397;53.016;-2.260;2023-06-22T11:24:37;23.90;99.90
44671;DHT22;48397;53.016;-2.260;2023-06-22T11:27:05;24.10;99.90
44671;DHT22;48397;53.016;-2.260;2023-06-22T11:29:33;24.10;99.90
44671;DHT22;48397;53.016;-2.260;2023-06-22T11:32:06;23.90;99.90
44671;DHT22;48397;53.016;-2.260;2023-06-22T11:34:34;23.90;99.90
44671;DHT22;48397;53.016;-2.260;2023-06-22T11:37:02;24.20;99.90
44671;DHT22;48397;53.016;-2.260;2023-06-22T11:39:30;24.20;99.90
44671;DHT22;48397;53.016;-2.260;2023-06-22T11:42:14;24.20;99.90
44671;DHT22;48397;53.016;-2.260;2023-06-22T11:44:42;24.40;99.90
44671;DHT22;48397;53.016;-2.260;2023-06-22T11:47:10;24.30;99.90
44671;DHT22;48397;53.016;-2.260;2023-06-22T11:49:37;24.00;99.90
44671;DHT22;48397;53.016;-2.260;2023-06-22T11:52:05;23.60;99.90
44671;DHT22;48397;53.016;-2.260;2023-06-22T11:54:33;23.60;99.90
44671;DHT22;48397;53.016;-2.260;2023-06-22T11:57:01;23.10;99.90
44671;DHT22;48397;53.016;-2.260;2023-06-22T11:59:28;23.00;99.90
44671;DHT22;48397;53.016;-2.260;2023-06-22T12:01:57;22.80;99.90
44671;DHT22;48397;53.016;-2.260;2023-06-22T12:04:26;22.70;99.90
44671;DHT22;48397;53.016;-2.260;2023-06-22T12:09:23;23.50;99.90
44671;DHT22;48397;53.016;-2.260;2023-06-22T12:11:51;24.00;99.90
44671;DHT22;48397;53.016;-2.260;2023-06-22T12:14:18;24.30;99.90
44671;DHT22;48397;53.016;-2.260;2023-06-22T12:16:46;24.40;99.90
44671;DHT22;48397;53.016;-2.260;2023-06-22T12:19:14;24.40;99.90
44671;DHT22;48397;53.016;-2.260;2023-06-22T12:21:42;24.70;99.90
44671;DHT22;48397;53.016;-2.260;2023-06-22T12:24:12;24.60;99.90
44671;DHT22;48397;53.016;-2.260;2023-06-22T12:26:40;24.60;99.90
44671;DHT22;48397;53.016;-2.260;2023-06-22T12:29:08;25.10;99.90
44671;DHT22;48397;53.016;-2.260;2023-06-22T12:31:36;25.10;99.90
44671;DHT22;48397;53.016;-2.260;2023-06-22T12:34:06;25.40;99.90
44671;DHT22;48397;53.016;-2.260;2023-06-22T12:36:33;25.50;99.90
44671;DHT22;48397;53.016;-2.260;2023-06-22T12:39:01;25.50;99.90
44671;DHT22;48397;53.016;-2.260;2023-06-22T12:41:29;25.70;99.90
44671;DHT22;48397;53.016;-2.260;2023-06-22T12:43:56;25.80;99.90
44671;DHT22;48397;53.016;-2.260;2023-06-22T12:46:24;25.90;99.90
44671;DHT22;48397;53.016;-2.260;2023-06-22T12:48:51;26.40;99.90
44671;DHT22;48397;53.016;-2.260;2023-06-22T12:51:22;26.70;99.90
44671;DHT22;48397;53.016;-2.260;2023-06-22T12:53:50;26.90;99.90
44671;DHT22;48397;53.016;-2.260;2023-06-22T12:56:18;27.00;99.90
44671;DHT22;48397;53.016;-2.260;2023-06-22T12:58:46;26.80;99.90
44671;DHT22;48397;53.016;-2.260;2023-06-22T13:01:13;26.70;99.90
44671;DHT22;48397;53.016;-2.260;2023-06-22T13:06:09;27.00;99.90
44671;DHT22;48397;53.016;-2.260;2023-06-22T13:08:37;27.10;99.90
44671;DHT22;48397;53.016;-2.260;2023-06-22T13:11:07;26.90;99.90
44671;DHT22;48397;53.016;-2.260;2023-06-22T13:13:35;26.80;99.90
44671;DHT22;48397;53.016;-2.260;2023-06-22T13:18:31;26.30;99.90
44671;DHT22;48397;53.016;-2.260;2023-06-22T13:20:59;26.60;99.90
44671;DHT22;48397;53.016;-2.260;2023-06-22T13:23:27;26.60;99.90
44671;DHT22;48397;53.016;-2.260;2023-06-22T13:25:55;26.70;99.90
44671;DHT22;48397;53.016;-2.260;2023-06-22T13:28:23;26.60;99.90
44671;DHT22;48397;53.016;-2.260;2023-06-22T13:33:23;27.20;99.90
44671;DHT22;48397;53.016;-2.260;2023-06-22T13:35:51;27.10;99.90
44671;DHT22;48397;53.016;-2.260;2023-06-22T13:38:19;27.30;99.90
44671;DHT22;48397;53.016;-2.260;2023-06-22T13:40:46;27.30;99.90
44671;DHT22;48397;53.016;-2.260;2023-06-22T13:43:15;27.40;99.90
44671;DHT22;48397;53.016;-2.260;2023-06-22T13:48:11;27.00;99.90
44671;DHT22;48397;53.016;-2.260;2023-06-22T13:50:39;27.20;99.90
44671;DHT22;48397;53.016;-2.260;2023-06-22T13:53:06;27.40;99.90
44671;DHT22;48397;53.016;-2.260;2023-06-22T13:55:34;27.30;99.90
44671;DHT22;48397;53.016;-2.260;2023-06-22T13:58:02;27.80;99.90
44671;DHT22;48397;53.016;-2.260;2023-06-22T14:00:29;28.00;98.40
44671;DHT22;48397;53.016;-2.260;2023-06-22T14:02:58;27.80;98.10
44671;DHT22;48397;53.016;-2.260;2023-06-22T14:05:25;28.10;97.90
44671;DHT22;48397;53.016;-2.260;2023-06-22T14:07:53;28.20;97.80
44671;DHT22;48397;53.016;-2.260;2023-06-22T14:12:49;27.30;97.10
44671;DHT22;48397;53.016;-2.260;2023-06-22T14:15:17;27.30;97.30
44671;DHT22;48397;53.016;-2.260;2023-06-22T14:17:44;28.00;97.60
44671;DHT22;48397;53.016;-2.260;2023-06-22T14:20:12;28.10;97.50
44671;DHT22;48397;53.016;-2.260;2023-06-22T14:22:40;28.40;97.00
44671;DHT22;48397;53.016;-2.260;2023-06-22T14:27:36;29.00;96.80
44671;DHT22;48397;53.016;-2.260;2023-06-22T14:30:04;29.30;96.90
44671;DHT22;48397;53.016;-2.260;2023-06-22T14:32:33;29.50;96.20
44671;DHT22;48397;53.016;-2.260;2023-06-22T14:35:01;29.60;95.40
44671;DHT22;48397;53.016;-2.260;2023-06-22T14:37:29;29.60;94.80
44671;DHT22;48397;53.016;-2.260;2023-06-22T14:39:57;29.60;94.10
44671;DHT22;48397;53.016;-2.260;2023-06-22T14:42:24;29.70;94.40
44671;DHT22;48397;53.016;-2.260;2023-06-22T14:44:54;29.40;93.70
44671;DHT22;48397;53.016;-2.260;2023-06-22T14:47:22;29.30;93.40
44671;DHT22;48397;53.016;-2.260;2023-06-22T14:49:49;29.70;93.10
44671;DHT22;48397;53.016;-2.260;2023-06-22T14:52:17;29.90;92.60
44671;DHT22;48397;53.016;-2.260;2023-06-22T14:54:45;29.80;92.20
44671;DHT22;48397;53.016;-2.260;2023-06-22T14:57:12;29.90;92.30
44671;DHT22;48397;53.016;-2.260;2023-06-22T14:59:46;30.00;92.30
44671;DHT22;48397;53.016;-2.260;2023-06-22T15:02:14;30.10;91.90
44671;DHT22;48397;53.016;-2.260;2023-06-22T15:04:42;30.40;91.10
44671;DHT22;48397;53.016;-2.260;2023-06-22T15:07:10;30.70;91.70
44671;DHT22;48397;53.016;-2.260;2023-06-22T15:09:38;31.30;90.20
44671;DHT22;48397;53.016;-2.260;2023-06-22T15:12:08;31.30;89.70
44671;DHT22;48397;53.016;-2.260;2023-06-22T15:14:42;31.50;88.50
44671;DHT22;48397;53.016;-2.260;2023-06-22T15:19:38;30.90;89.20
44671;DHT22;48397;53.016;-2.260;2023-06-22T15:22:07;30.70;90.20
44671;DHT22;48397;53.016;-2.260;2023-06-22T15:24:34;30.90;89.40
44671;DHT22;48397;53.016;-2.260;2023-06-22T15:29:30;31.50;87.10
44671;DHT22;48397;53.016;-2.260;2023-06-22T15:32:01;31.40;84.70
44671;DHT22;48397;53.016;-2.260;2023-06-22T15:34:29;31.10;84.80
44671;DHT22;48397;53.016;-2.260;2023-06-22T15:36:57;31.00;87.40
44671;DHT22;48397;53.016;-2.260;2023-06-22T15:41:54;31.40;86.20
44671;DHT22;48397;53.016;-2.260;2023-06-22T15:44:21;31.50;85.50
44671;DHT22;48397;53.016;-2.260;2023-06-22T15:46:49;31.30;84.90
44671;DHT22;48397;53.016;-2.260;2023-06-22T15:49:17;31.10;86.70
44671;DHT22;48397;53.016;-2.260;2023-06-22T15:51:45;31.10;84.30
44671;DHT22;48397;53.016;-2.260;2023-06-22T15:54:12;31.00;84.60
44671;DHT22;48397;53.016;-2.260;2023-06-22T15:56:40;30.90;83.30
44671;DHT22;48397;53.016;-2.260;2023-06-22T15:59:08;31.00;82.50
44671;DHT22;48397;53.016;-2.260;2023-06-22T16:01:36;30.80;82.70
44671;DHT22;48397;53.016;-2.260;2023-06-22T16:04:04;30.50;84.20
44671;DHT22;48397;53.016;-2.260;2023-06-22T16:06:31;30.50;83.50
44671;DHT22;48397;53.016;-2.260;2023-06-22T16:08:59;30.70;83.20
44671;DHT22;48397;53.016;-2.260;2023-06-22T16:16:23;30.70;82.60
44671;DHT22;48397;53.016;-2.260;2023-06-22T16:18:50;30.70;83.20
44671;DHT22;48397;53.016;-2.260;2023-06-22T16:21:19;30.70;84.00
44671;DHT22;48397;53.016;-2.260;2023-06-22T16:23:47;31.00;81.90
44671;DHT22;48397;53.016;-2.260;2023-06-22T16:26:15;30.80;82.30
44671;DHT22;48397;53.016;-2.260;2023-06-22T16:28:42;30.70;83.30
44671;DHT22;48397;53.016;-2.260;2023-06-22T16:36:06;29.90;82.90
44671;DHT22;48397;53.016;-2.260;2023-06-22T16:38:34;29.10;84.10
44671;DHT22;48397;53.016;-2.260;2023-06-22T16:41:05;28.10;86.20
44671;DHT22;48397;53.016;-2.260;2023-06-22T16:43:34;27.60;88.40
44671;DHT22;48397;53.016;-2.260;2023-06-22T16:46:02;27.50;89.20
44671;DHT22;48397;53.016;-2.260;2023-06-22T16:48:29;28.10;89.80
44671;DHT22;48397;53.016;-2.260;2023-06-22T16:50:57;28.90;87.10
44671;DHT22;48397;53.016;-2.260;2023-06-22T16:53:25;28.90;87.40
44671;DHT22;48397;53.016;-2.260;2023-06-22T16:55:53;28.50;86.50
44671;DHT22;48397;53.016;-2.260;2023-06-22T16:58:21;28.20;87.30
44671;DHT22;48397;53.016;-2.260;2023-06-22T17:00:51;28.30;87.80
44671;DHT22;48397;53.016;-2.260;2023-06-22T17:03:32;28.50;88.50
44671;DHT22;48397;53.016;-2.260;2023-06-22T17:06:02;28.80;87.70
44671;DHT22;48397;53.016;-2.260;2023-06-22T17:08:32;29.10;86.30
44671;DHT22;48397;53.016;-2.260;2023-06-22T17:11:02;28.90;86.60
44671;DHT22;48397;53.016;-2.260;2023-06-22T17:13:30;28.40;86.90
44671;DHT22;48397;53.016;-2.260;2023-06-22T17:16:00;28.00;87.00
44671;DHT22;48397;53.016;-2.260;2023-06-22T17:18:32;27.40;87.80
44671;DHT22;48397;53.016;-2.260;2023-06-22T17:21:01;26.90;88.90